Time,TemperatureF,DewpointF,PressureIn,WindDirection,WindDirectionDegrees,WindSpeedMPH,WindSpeedGustMPH,Humidity,HourlyPrecipIn,Conditions,Clouds,dailyrainin,SolarRadiationWatts/m^2,SoftwareType,DateUTC
2013-02-12 00:01:00,48.9,44.6,30.06,East,86,7.0,7.0,85,0.00,,---,0.02,0.00,VWS V14.00,2013-02-12 06:01:00,
2013-02-12 00:09:00,48.8,44.5,30.05,ENE,78,7.0,7.0,85,0.00,,---,0.00,0.00,VWS V14.00,2013-02-12 06:09:00,
2013-02-12 00:17:00,48.6,44.6,30.02,East,82,9.0,9.0,86,0.01,,---,0.01,0.00,VWS V14.00,2013-02-12 06:17:00,
2013-02-12 00:25:00,48.5,44.8,30.02,East,83,6.0,9.0,87,0.01,,---,0.01,0.00,VWS V14.00,2013-02-12 06:25:00,
2013-02-12 00:33:00,48.3,44.6,30.02,East,96,6.0,10.0,87,0.01,,---,0.01,0.00,VWS V14.00,2013-02-12 06:33:00,
2013-02-12 00:41:00,48.3,44.6,30.02,ENE,78,7.0,10.0,87,0.01,,---,0.01,0.00,VWS V14.00,2013-02-12 06:41:00,
2013-02-12 00:49:00,48.1,44.7,29.99,ENE,65,11.0,11.0,88,0.01,,---,0.01,0.00,VWS V14.00,2013-02-12 06:49:00,
2013-02-12 00:57:00,48.0,44.6,29.99,ENE,73,11.0,12.0,88,0.01,,---,0.01,0.00,VWS V14.00,2013-02-12 06:57:00,
2013-02-12 01:03:00,48.1,45.0,29.97,East,86,10.0,12.0,89,0.01,,---,0.01,0.00,VWS V14.00,2013-02-12 07:03:00,
2013-02-12 01:09:00,48.1,45.0,29.97,East,91,6.0,12.0,89,0.01,,---,0.01,0.00,VWS V14.00,2013-02-12 07:09:00,
2013-02-12 01:17:00,47.8,44.7,29.96,East,86,9.0,12.0,89,0.01,,---,0.01,0.00,VWS V14.00,2013-02-12 07:17:00,
2013-02-12 01:25:00,47.7,44.9,29.96,East,82,10.0,12.0,90,0.01,,---,0.01,0.00,VWS V14.00,2013-02-12 07:25:00,
2013-02-12 01:33:00,47.6,44.8,29.96,East,84,9.0,12.0,90,0.01,,---,0.01,0.00,VWS V14.00,2013-02-12 07:33:00,
2013-02-12 01:41:00,47.4,44.9,29.96,ESE,118,7.0,10.0,91,0.00,,---,0.01,0.00,VWS V14.00,2013-02-12 07:41:00,
2013-02-12 01:49:00,47.2,44.7,29.96,ENE,68,10.0,10.0,91,0.00,,---,0.01,0.00,VWS V14.00,2013-02-12 07:49:00,
2013-02-12 01:58:00,47.2,44.7,29.96,ENE,65,8.0,10.0,91,0.00,,---,0.01,0.00,VWS V14.00,2013-02-12 07:58:00,
2013-02-12 02:03:00,47.3,44.8,29.96,East,96,4.0,10.0,91,0.00,,---,0.01,0.00,VWS V14.00,2013-02-12 08:03:00,
2013-02-12 02:10:00,47.4,44.9,29.96,East,82,4.0,6.0,91,0.00,,---,0.01,0.00,VWS V14.00,2013-02-12 08:10:00,
2013-02-12 02:18:00,47.3,44.8,29.96,ESE,109,3.0,7.0,91,0.00,,---,0.01,0.00,VWS V14.00,2013-02-12 08:18:00,
2013-02-12 02:26:00,47.1,44.6,29.96,ESE,118,1.0,7.0,91,0.00,,---,0.01,0.00,VWS V14.00,2013-02-12 08:26:00,
2013-02-12 02:33:00,47.3,44.8,29.99,ESE,117,0.0,7.0,91,0.00,,---,0.01,0.00,VWS V14.00,2013-02-12 08:33:00,
2013-02-12 02:38:00,47.5,44.7,29.99,ESE,117,1.0,2.0,90,0.00,,---,0.01,0.00,VWS V14.00,2013-02-12 08:38:00,
2013-02-12 02:46:00,47.8,45.0,29.99,East,82,5.0,6.0,90,0.00,,---,0.01,0.00,VWS V14.00,2013-02-12 08:46:00,
2013-02-12 02:54:00,48.0,45.2,29.97,NNE,25,1.0,6.0,90,0.00,,---,0.01,0.00,VWS V14.00,2013-02-12 08:54:00,
2013-02-12 03:02:00,48.0,44.9,30.00,NNE,26,1.0,6.0,89,0.00,,---,0.01,0.00,VWS V14.00,2013-02-12 09:02:00,
2013-02-12 03:10:00,48.1,45.0,30.00,NE,34,4.0,4.0,89,0.00,,---,0.01,0.00,VWS V14.00,2013-02-12 09:10:00,
2013-02-12 03:18:00,48.1,45.0,29.97,NNE,30,1.0,4.0,89,0.00,,---,0.01,0.00,VWS V14.00,2013-02-12 09:18:00,
2013-02-12 03:26:00,48.2,45.1,29.97,ENE,64,1.0,4.0,89,0.00,,---,0.01,0.00,VWS V14.00,2013-02-12 09:26:00,
2013-02-12 03:33:00,48.3,44.9,30.00,NE,34,0.0,4.0,88,0.00,,---,0.01,0.00,VWS V14.00,2013-02-12 09:33:00,
2013-02-12 03:38:00,48.5,45.1,30.00,ENE,71,5.0,5.0,88,0.00,,---,0.01,0.00,VWS V14.00,2013-02-12 09:38:00,
2013-02-12 03:46:00,48.6,45.2,30.00,NE,37,1.0,10.0,88,0.00,,---,0.01,0.00,VWS V14.00,2013-02-12 09:46:00,
2013-02-12 03:54:00,48.3,44.9,29.93,NE,55,0.0,10.0,88,0.00,,---,0.01,0.00,VWS V14.00,2013-02-12 09:54:00,
2013-02-12 04:02:00,48.3,44.9,29.96,ENE,78,7.0,10.0,88,0.00,,---,0.01,0.00,VWS V14.00,2013-02-12 10:02:00,
2013-02-12 04:11:00,48.5,45.4,29.96,ENE,66,2.0,9.0,89,0.00,,---,0.01,0.00,VWS V14.00,2013-02-12 10:11:00,
2013-02-12 04:19:00,48.2,45.4,29.94,NE,39,1.0,9.0,90,0.00,,---,0.01,0.00,VWS V14.00,2013-02-12 10:19:00,
2013-02-12 04:27:00,48.0,45.2,29.94,North,5,0.0,9.0,90,0.00,,---,0.01,0.00,VWS V14.00,2013-02-12 10:27:00,
2013-02-12 04:33:00,48.0,45.2,29.96,ENE,60,2.0,9.0,90,0.00,,---,0.01,0.00,VWS V14.00,2013-02-12 10:33:00,
2013-02-12 04:39:00,48.2,45.4,29.96,ENE,71,1.0,2.0,90,0.00,,---,0.01,0.00,VWS V14.00,2013-02-12 10:39:00,
2013-02-12 04:47:00,48.2,45.4,29.93,ENE,74,1.0,7.0,90,0.01,,---,0.02,0.00,VWS V14.00,2013-02-12 10:47:00,
2013-02-12 04:55:00,48.3,45.2,29.93,ENE,74,7.0,10.0,89,0.01,,---,0.02,0.00,VWS V14.00,2013-02-12 10:55:00,
2013-02-12 05:03:00,48.3,45.5,29.92,ENE,72,4.0,10.0,90,0.01,,---,0.02,0.00,VWS V14.00,2013-02-12 11:03:00,
2013-02-12 05:11:00,48.1,45.3,29.92,NE,35,1.0,4.0,90,0.02,,---,0.03,0.00,VWS V14.00,2013-02-12 11:11:00,
2013-02-12 05:19:00,48.0,45.2,29.91,ENE,59,4.0,5.0,90,0.02,,---,0.03,0.00,VWS V14.00,2013-02-12 11:19:00,
2013-02-12 05:27:00,48.1,45.3,29.91,ENE,74,5.0,5.0,90,0.03,,---,0.04,0.00,VWS V14.00,2013-02-12 11:27:00,
2013-02-12 05:33:00,48.2,45.7,29.91,East,88,9.0,9.0,91,0.06,,---,0.07,0.00,VWS V14.00,2013-02-12 11:33:00,
2013-02-12 05:39:00,48.2,45.4,29.91,East,82,9.0,10.0,90,0.09,,---,0.10,0.00,VWS V14.00,2013-02-12 11:39:00,
2013-02-12 05:47:00,48.1,45.3,29.91,ENE,69,6.0,10.0,90,0.09,,---,0.10,0.00,VWS V14.00,2013-02-12 11:47:00,
2013-02-12 05:56:00,48.1,45.3,29.91,East,89,6.0,12.0,90,0.09,,---,0.10,0.00,VWS V14.00,2013-02-12 11:56:00,
2013-02-12 06:03:00,48.1,45.6,29.89,North,5,5.0,12.0,91,0.10,,---,0.11,0.00,VWS V14.00,2013-02-12 12:03:00,
2013-02-12 06:12:00,47.9,45.4,29.89,ENE,71,3.0,6.0,91,0.10,,---,0.12,0.00,VWS V14.00,2013-02-12 12:12:00,
2013-02-12 06:20:00,47.8,45.3,29.90,ENE,74,9.0,9.0,91,0.11,,---,0.13,0.00,VWS V14.00,2013-02-12 12:20:00,
2013-02-12 06:28:00,48.0,45.5,29.90,ENE,75,11.0,13.0,91,0.11,,---,0.13,0.00,VWS V14.00,2013-02-12 12:28:00,
2013-02-12 06:36:00,48.1,45.6,29.88,East,84,10.0,11.0,91,0.07,,---,0.14,0.00,VWS V14.00,2013-02-12 12:36:00,
2013-02-12 06:44:00,48.0,45.5,29.88,East,92,6.0,13.0,91,0.09,,---,0.16,0.00,VWS V14.00,2013-02-12 12:44:00,
2013-02-12 06:52:00,47.9,45.4,29.88,ESE,115,7.0,13.0,91,0.11,,---,0.18,0.00,VWS V14.00,2013-02-12 12:52:00,
2013-02-12 07:00:00,47.9,45.4,29.88,East,83,14.0,14.0,91,0.15,,---,0.22,0.00,VWS V14.00,2013-02-12 13:00:00,
2013-02-12 07:08:00,47.9,45.7,29.86,East,86,11.0,11.0,92,0.14,,---,0.25,0.00,VWS V14.00,2013-02-12 13:08:00,
2013-02-12 07:16:00,47.9,45.7,29.86,East,80,9.0,15.0,92,0.15,,---,0.26,0.00,VWS V14.00,2013-02-12 13:16:00,
2013-02-12 07:24:00,47.9,45.7,29.86,ENE,78,5.0,15.0,92,0.17,,---,0.28,0.00,VWS V14.00,2013-02-12 13:24:00,
2013-02-12 07:32:00,48.1,45.9,29.92,ENE,78,2.0,15.0,92,0.19,,---,0.30,0.00,VWS V14.00,2013-02-12 13:32:00,
2013-02-12 07:40:00,47.8,45.6,29.92,NE,55,3.0,4.0,92,0.21,,---,0.35,0.00,VWS V14.00,2013-02-12 13:40:00,
2013-02-12 07:48:00,47.8,45.6,29.88,ENE,65,4.0,8.0,92,0.23,,---,0.37,0.00,VWS V14.00,2013-02-12 13:48:00,
2013-02-12 07:56:00,47.9,46.0,29.88,NE,51,4.0,8.0,93,0.25,,---,0.39,0.00,VWS V14.00,2013-02-12 13:56:00,
2013-02-12 08:05:00,47.9,46.0,29.89,ENE,78,6.0,10.0,93,0.17,,---,0.40,0.00,VWS V14.00,2013-02-12 14:05:00,
2013-02-12 08:13:00,47.8,45.9,29.89,ENE,78,12.0,13.0,93,0.26,,---,0.49,7.00,VWS V14.00,2013-02-12 14:13:00,
2013-02-12 08:21:00,47.7,45.8,29.87,ESE,103,6.0,14.0,93,0.29,,---,0.52,0.00,VWS V14.00,2013-02-12 14:21:00,
2013-02-12 08:29:00,47.7,45.8,29.87,East,82,6.0,14.0,93,0.32,,---,0.55,7.00,VWS V14.00,2013-02-12 14:29:00,
2013-02-12 08:37:00,47.6,45.7,29.88,East,82,9.0,12.0,93,0.26,,---,0.56,7.00,VWS V14.00,2013-02-12 14:37:00,
2013-02-12 08:45:00,47.5,45.6,29.88,NNE,22,4.0,12.0,93,0.27,,---,0.57,0.00,VWS V14.00,2013-02-12 14:45:00,
2013-02-12 08:53:00,47.4,45.5,29.90,ENE,69,2.0,12.0,93,0.27,,---,0.57,7.00,VWS V14.00,2013-02-12 14:53:00,
2013-02-12 09:01:00,47.8,46.2,29.90,NE,38,3.0,12.0,94,0.29,,---,0.59,7.00,VWS V14.00,2013-02-12 15:01:00,
2013-02-12 09:09:00,47.8,46.2,29.88,NE,40,0.0,4.0,94,0.19,,---,0.59,11.00,VWS V14.00,2013-02-12 15:09:00,
2013-02-12 09:17:00,47.9,46.3,29.87,East,85,7.0,7.0,94,0.19,,---,0.59,28.00,VWS V14.00,2013-02-12 15:17:00,
2013-02-12 09:25:00,48.1,46.5,29.87,ENE,76,10.0,12.0,94,0.20,,---,0.60,134.00,VWS V14.00,2013-02-12 15:25:00,
2013-02-12 09:33:00,48.2,46.6,29.86,East,97,10.0,12.0,94,0.20,,---,0.60,130.00,VWS V14.00,2013-02-12 15:33:00,
2013-02-12 09:41:00,48.4,46.5,29.86,East,82,10.0,11.0,93,0.05,,---,0.60,97.00,VWS V14.00,2013-02-12 15:41:00,
2013-02-12 09:50:00,48.7,46.8,29.85,ENE,78,10.0,12.0,93,0.05,,---,0.60,141.00,VWS V14.00,2013-02-12 15:50:00,
2013-02-12 09:58:00,48.7,46.8,29.85,East,88,11.0,14.0,93,0.05,,---,0.60,40.00,VWS V14.00,2013-02-12 15:58:00,
2013-02-12 10:03:00,48.8,46.9,29.84,East,82,11.0,14.0,93,0.05,,---,0.60,127.00,VWS V14.00,2013-02-12 16:03:00,
2013-02-12 10:10:00,48.9,47.0,29.84,East,96,8.0,13.0,93,0.01,,---,0.60,62.00,VWS V14.00,2013-02-12 16:10:00,
2013-02-12 10:18:00,49.0,47.1,29.84,East,93,11.0,13.0,93,0.01,,---,0.60,81.00,VWS V14.00,2013-02-12 16:18:00,
2013-02-12 10:26:00,48.9,46.7,29.84,East,84,4.0,13.0,92,0.01,,---,0.60,19.00,VWS V14.00,2013-02-12 16:26:00,
2013-02-12 10:33:00,48.8,46.6,29.90,WNW,300,3.0,13.0,92,0.01,,---,0.60,21.00,VWS V14.00,2013-02-12 16:33:00,
2013-02-12 10:38:00,48.8,46.6,29.90,WNW,299,0.0,3.0,92,0.01,,---,0.61,56.00,VWS V14.00,2013-02-12 16:38:00,
2013-02-12 10:46:00,48.9,46.7,29.90,WNW,299,0.0,3.0,92,0.04,,---,0.64,32.00,VWS V14.00,2013-02-12 16:46:00,
2013-02-12 10:54:00,49.1,46.9,29.91,SSE,148,0.0,3.0,92,0.04,,---,0.64,33.00,VWS V14.00,2013-02-12 16:54:00,
2013-02-12 11:02:00,49.1,46.9,29.90,East,97,0.0,4.0,92,0.04,,---,0.64,37.00,VWS V14.00,2013-02-12 17:02:00,
2013-02-12 11:10:00,49.1,46.9,29.90,East,97,0.0,2.0,92,0.05,,---,0.65,35.00,VWS V14.00,2013-02-12 17:10:00,
2013-02-12 11:18:00,49.1,47.2,29.91,East,97,0.0,2.0,93,0.05,,---,0.65,46.00,VWS V14.00,2013-02-12 17:18:00,
2013-02-12 11:26:00,49.0,47.1,29.91,East,97,1.0,2.0,93,0.06,,---,0.66,37.00,VWS V14.00,2013-02-12 17:26:00,
2013-02-12 11:33:00,49.0,47.1,29.91,East,98,0.0,2.0,93,0.06,,---,0.66,42.00,VWS V14.00,2013-02-12 17:33:00,
2013-02-12 11:38:00,49.1,47.2,29.91,East,96,0.0,0.0,93,0.06,,---,0.66,35.00,VWS V14.00,2013-02-12 17:38:00,
2013-02-12 11:46:00,49.3,47.7,29.91,East,97,0.0,0.0,94,0.06,,---,0.66,60.00,VWS V14.00,2013-02-12 17:46:00,
2013-02-12 11:54:00,49.2,47.5,29.91,West,262,1.0,4.0,94,0.06,,---,0.66,70.00,VWS V14.00,2013-02-12 17:54:00,
2013-02-12 12:03:00,49.2,47.5,29.90,NW,310,0.0,4.0,94,0.06,,---,0.66,76.00,VWS V14.00,2013-02-12 18:03:00,
2013-02-12 12:11:00,49.2,47.5,29.90,North,355,0.0,3.0,94,0.03,,---,0.67,105.00,VWS V14.00,2013-02-12 18:11:00,
2013-02-12 12:19:00,49.0,47.3,29.89,North,360,1.0,3.0,94,0.03,,---,0.67,51.00,VWS V14.00,2013-02-12 18:19:00,
2013-02-12 12:27:00,48.8,47.2,29.89,North,360,0.0,3.0,94,0.03,,---,0.67,104.00,VWS V14.00,2013-02-12 18:27:00,
2013-02-12 12:33:00,48.9,47.2,29.89,North,360,0.0,3.0,94,0.03,,---,0.67,100.00,VWS V14.00,2013-02-12 18:33:00,
2013-02-12 12:39:00,49.0,47.3,29.89,North,360,4.0,4.0,94,0.01,,---,0.67,81.00,VWS V14.00,2013-02-12 18:39:00,
2013-02-12 12:47:00,49.1,47.7,29.89,North,360,0.0,4.0,95,0.01,,---,0.67,83.00,VWS V14.00,2013-02-12 18:47:00,
2013-02-12 12:55:00,49.2,47.5,29.88,NNE,30,3.0,4.0,94,0.01,,---,0.67,165.00,VWS V14.00,2013-02-12 18:55:00,
2013-02-12 13:03:00,49.0,47.3,29.86,ENE,74,0.0,4.0,94,0.01,,---,0.67,167.00,VWS V14.00,2013-02-12 19:03:00,
2013-02-12 13:11:00,49.4,48.0,29.86,NE,46,1.0,2.0,95,0.01,,---,0.67,121.00,VWS V14.00,2013-02-12 19:11:00,
2013-02-12 13:19:00,49.7,48.3,29.85,NE,47,0.0,2.0,95,0.01,,---,0.67,155.00,VWS V14.00,2013-02-12 19:19:00,
2013-02-12 13:27:00,50.0,48.6,29.85,ENE,66,0.0,5.0,95,0.01,,---,0.67,229.00,VWS V14.00,2013-02-12 19:27:00,
2013-02-12 13:33:00,50.0,48.6,29.83,ENE,67,2.0,5.0,95,0.01,,---,0.67,413.00,VWS V14.00,2013-02-12 19:33:00,
2013-02-12 13:39:00,50.3,48.6,29.83,ENE,65,0.0,3.0,94,0.00,,---,0.67,172.00,VWS V14.00,2013-02-12 19:39:00,
2013-02-12 13:47:00,50.3,48.6,29.83,ENE,63,0.0,3.0,94,0.00,,---,0.67,195.00,VWS V14.00,2013-02-12 19:47:00,
2013-02-12 13:55:00,50.0,48.1,29.83,ENE,63,0.0,3.0,93,0.00,,---,0.67,142.00,VWS V14.00,2013-02-12 19:55:00,
2013-02-12 14:03:00,50.1,48.4,29.83,ENE,61,1.0,3.0,94,0.00,,---,0.67,88.00,VWS V14.00,2013-02-12 20:03:00,
2013-02-12 14:12:00,50.0,48.1,29.83,ENE,57,1.0,2.0,93,0.00,,---,0.67,79.00,VWS V14.00,2013-02-12 20:12:00,
2013-02-12 14:20:00,50.0,48.1,29.83,ENE,57,0.0,2.0,93,0.00,,---,0.67,63.00,VWS V14.00,2013-02-12 20:20:00,
2013-02-12 14:28:00,50.1,48.2,29.83,ENE,57,0.0,2.0,93,0.00,,---,0.67,63.00,VWS V14.00,2013-02-12 20:28:00,
2013-02-12 14:33:00,50.3,48.4,29.83,ENE,57,0.0,2.0,93,0.00,,---,0.67,79.00,VWS V14.00,2013-02-12 20:33:00,
2013-02-12 14:40:00,50.5,48.6,29.83,ENE,57,0.0,1.0,93,0.00,,---,0.67,77.00,VWS V14.00,2013-02-12 20:40:00,
2013-02-12 14:48:00,50.5,48.6,29.82,ENE,57,0.0,1.0,93,0.00,,---,0.67,70.00,VWS V14.00,2013-02-12 20:48:00,
2013-02-12 14:56:00,50.5,48.3,29.82,ENE,57,0.0,2.0,92,0.00,,---,0.67,70.00,VWS V14.00,2013-02-12 20:56:00,
2013-02-12 15:03:00,50.5,48.3,29.83,ENE,57,0.0,2.0,92,0.00,,---,0.67,76.00,VWS V14.00,2013-02-12 21:03:00,
2013-02-12 15:08:00,50.6,48.4,29.83,ENE,57,0.0,0.0,92,0.00,,---,0.67,74.00,VWS V14.00,2013-02-12 21:08:00,
2013-02-12 15:16:00,50.7,48.2,29.83,ENE,57,1.0,3.0,91,0.00,,---,0.67,93.00,VWS V14.00,2013-02-12 21:16:00,
2013-02-12 15:24:00,50.8,48.6,29.82,ENE,57,0.0,3.0,92,0.00,,---,0.67,74.00,VWS V14.00,2013-02-12 21:24:00,
2013-02-12 15:32:00,50.8,48.6,29.82,ENE,57,0.0,3.0,92,0.00,,---,0.67,46.00,VWS V14.00,2013-02-12 21:32:00,
2013-02-12 15:40:00,50.6,48.4,29.82,ENE,57,0.0,1.0,92,0.00,,---,0.67,49.00,VWS V14.00,2013-02-12 21:40:00,
2013-02-12 15:48:00,50.3,48.1,29.82,ENE,57,0.0,1.0,92,0.00,,---,0.67,47.00,VWS V14.00,2013-02-12 21:48:00,
2013-02-12 15:56:00,50.2,48.0,29.82,ENE,57,0.0,2.0,92,0.00,,---,0.67,44.00,VWS V14.00,2013-02-12 21:56:00,
2013-02-12 16:03:00,50.0,47.8,29.82,ENE,57,0.0,3.0,92,0.00,,---,0.67,56.00,VWS V14.00,2013-02-12 22:03:00,
2013-02-12 16:09:00,50.0,48.1,29.82,ENE,57,0.0,2.0,93,0.00,,---,0.67,51.00,VWS V14.00,2013-02-12 22:09:00,
2013-02-12 16:17:00,49.8,47.9,29.82,ENE,57,0.0,2.0,93,0.00,,---,0.67,49.00,VWS V14.00,2013-02-12 22:17:00,
2013-02-12 16:25:00,49.9,48.2,29.82,ENE,57,0.0,2.0,94,0.00,,---,0.67,46.00,VWS V14.00,2013-02-12 22:25:00,
2013-02-12 16:33:00,49.7,48.0,29.80,ENE,60,2.0,2.0,94,0.00,,---,0.67,37.00,VWS V14.00,2013-02-12 22:33:00,
2013-02-12 16:41:00,49.2,47.3,29.80,East,83,2.0,4.0,93,0.00,,---,0.67,30.00,VWS V14.00,2013-02-12 22:41:00,
2013-02-12 16:49:00,49.0,47.3,29.81,ENE,65,3.0,7.0,94,0.00,,---,0.67,28.00,VWS V14.00,2013-02-12 22:49:00,
2013-02-12 16:57:00,48.6,46.7,29.81,East,90,3.0,7.0,93,0.00,,---,0.67,16.00,VWS V14.00,2013-02-12 22:57:00,
2013-02-12 17:03:00,48.4,46.8,29.83,East,88,1.0,7.0,94,0.00,,---,0.67,11.00,VWS V14.00,2013-02-12 23:03:00,
2013-02-12 17:09:00,48.4,46.8,29.83,East,88,2.0,3.0,94,0.00,,---,0.67,9.00,VWS V14.00,2013-02-12 23:09:00,
2013-02-12 17:17:00,48.4,46.8,29.83,East,88,0.0,3.0,94,0.00,,---,0.67,7.00,VWS V14.00,2013-02-12 23:17:00,
2013-02-12 17:25:00,48.4,46.8,29.83,East,88,0.0,3.0,94,0.00,,---,0.67,0.00,VWS V14.00,2013-02-12 23:25:00,
2013-02-12 17:33:00,48.3,46.7,29.83,East,88,0.0,3.0,94,0.00,,---,0.67,0.00,VWS V14.00,2013-02-12 23:33:00,
2013-02-12 17:41:00,48.2,46.3,29.83,East,88,1.0,2.0,93,0.00,,---,0.67,0.00,VWS V14.00,2013-02-12 23:41:00,
2013-02-12 17:49:00,48.2,46.3,29.84,East,88,0.0,2.0,93,0.00,,---,0.67,0.00,VWS V14.00,2013-02-12 23:49:00,
2013-02-12 17:57:00,48.2,46.6,29.84,East,88,0.0,2.0,94,0.00,,---,0.67,0.00,VWS V14.00,2013-02-12 23:57:00,
2013-02-12 18:03:00,48.3,46.7,29.85,East,88,0.0,2.0,94,0.00,,---,0.67,0.00,VWS V14.00,2013-02-13 00:03:00,
2013-02-12 18:09:00,48.2,46.6,29.85,East,88,0.0,0.0,94,0.01,,---,0.68,0.00,VWS V14.00,2013-02-13 00:09:00,
2013-02-12 18:18:00,48.2,46.6,29.85,East,88,0.0,0.0,94,0.01,,---,0.68,0.00,VWS V14.00,2013-02-13 00:18:00,
2013-02-12 18:26:00,48.2,46.8,29.85,East,88,0.0,0.0,95,0.01,,---,0.68,0.00,VWS V14.00,2013-02-13 00:26:00,
2013-02-12 18:33:00,48.2,46.8,29.85,East,88,1.0,1.0,95,0.02,,---,0.69,0.00,VWS V14.00,2013-02-13 00:33:00,
2013-02-12 18:42:00,48.1,46.7,29.85,East,88,0.0,1.0,95,0.02,,---,0.69,0.00,VWS V14.00,2013-02-13 00:42:00,
2013-02-12 18:50:00,48.0,46.6,29.86,NW,319,0.0,2.0,95,0.02,,---,0.69,0.00,VWS V14.00,2013-02-13 00:50:00,
2013-02-12 18:58:00,48.1,46.7,29.86,NW,319,1.0,2.0,95,0.03,,---,0.70,0.00,VWS V14.00,2013-02-13 00:58:00,
2013-02-12 19:03:00,48.1,46.7,29.86,NW,319,0.0,2.0,95,0.03,,---,0.70,0.00,VWS V14.00,2013-02-13 01:03:00,
2013-02-12 19:10:00,48.1,46.7,29.86,NW,319,1.0,3.0,95,0.04,,---,0.71,0.00,VWS V14.00,2013-02-13 01:10:00,
2013-02-12 19:18:00,48.2,46.8,29.88,NW,319,0.0,3.0,95,0.04,,---,0.71,0.00,VWS V14.00,2013-02-13 01:18:00,
2013-02-12 19:26:00,48.3,46.9,29.88,NW,318,1.0,4.0,95,0.04,,---,0.71,0.00,VWS V14.00,2013-02-13 01:26:00,
2013-02-12 19:33:00,48.3,46.9,29.88,NW,314,4.0,6.0,95,0.04,,---,0.71,0.00,VWS V14.00,2013-02-13 01:33:00,
2013-02-12 19:42:00,48.1,46.7,29.88,NW,323,1.0,4.0,95,0.02,,---,0.71,0.00,VWS V14.00,2013-02-13 01:42:00,
2013-02-12 19:50:00,47.9,46.5,29.88,NW,316,0.0,4.0,95,0.02,,---,0.71,0.00,VWS V14.00,2013-02-13 01:50:00,
2013-02-12 19:58:00,48.0,46.6,29.88,NW,314,2.0,4.0,95,0.02,,---,0.71,0.00,VWS V14.00,2013-02-13 01:58:00,
2013-02-12 20:06:00,48.1,46.7,29.89,WNW,299,8.0,8.0,95,0.01,,---,0.71,0.00,VWS V14.00,2013-02-13 02:06:00,
2013-02-12 20:14:00,48.0,46.6,29.89,NNW,346,4.0,9.0,95,0.01,,---,0.71,0.00,VWS V14.00,2013-02-13 02:14:00,
2013-02-12 20:23:00,48.0,46.4,29.89,WNW,295,2.0,9.0,94,0.01,,---,0.71,0.00,VWS V14.00,2013-02-13 02:23:00,
2013-02-12 20:31:00,48.1,46.5,29.89,West,277,1.0,9.0,94,0.01,,---,0.71,0.00,VWS V14.00,2013-02-13 02:31:00,
2013-02-12 20:39:00,48.0,46.4,29.89,WNW,302,1.0,5.0,94,0.00,,---,0.71,0.00,VWS V14.00,2013-02-13 02:39:00,
2013-02-12 20:47:00,47.8,45.9,29.89,WNW,300,2.0,10.0,93,0.00,,---,0.71,0.00,VWS V14.00,2013-02-13 02:47:00,
2013-02-12 20:55:00,47.4,45.5,29.90,North,350,8.0,11.0,93,0.00,,---,0.71,0.00,VWS V14.00,2013-02-13 02:55:00,
2013-02-12 21:03:00,47.0,45.1,29.91,WNW,302,4.0,12.0,93,0.00,,---,0.71,0.00,VWS V14.00,2013-02-13 03:03:00,
2013-02-12 21:11:00,46.7,44.8,29.91,NW,315,7.0,9.0,93,0.00,,---,0.71,0.00,VWS V14.00,2013-02-13 03:11:00,
2013-02-12 21:19:00,46.5,44.6,29.91,North,9,0.0,9.0,93,0.00,,---,0.71,0.00,VWS V14.00,2013-02-13 03:19:00,
2013-02-12 21:27:00,46.4,44.5,29.91,NW,312,3.0,9.0,93,0.00,,---,0.71,0.00,VWS V14.00,2013-02-13 03:27:00,
2013-02-12 21:33:00,46.3,44.4,29.92,NW,321,4.0,9.0,93,0.00,,---,0.71,0.00,VWS V14.00,2013-02-13 03:33:00,
2013-02-12 21:39:00,46.3,44.4,29.92,NNW,340,2.0,6.0,93,0.00,,---,0.71,0.00,VWS V14.00,2013-02-13 03:39:00,
2013-02-12 21:47:00,46.2,44.3,29.93,NNW,348,4.0,10.0,93,0.00,,---,0.71,0.00,VWS V14.00,2013-02-13 03:47:00,
2013-02-12 21:55:00,46.2,44.3,29.93,NW,317,1.0,10.0,93,0.00,,---,0.71,0.00,VWS V14.00,2013-02-13 03:55:00,
2013-02-12 22:03:00,46.2,44.3,29.93,NNW,340,3.0,10.0,93,0.00,,---,0.71,0.00,VWS V14.00,2013-02-13 04:03:00,
2013-02-12 22:11:00,46.1,44.2,29.93,North,5,4.0,6.0,93,0.00,,---,0.71,0.00,VWS V14.00,2013-02-13 04:11:00,
2013-02-12 22:19:00,46.1,43.9,29.93,WNW,301,5.0,7.0,92,0.00,,---,0.71,0.00,VWS V14.00,2013-02-13 04:19:00,
2013-02-12 22:27:00,46.0,43.8,29.93,NW,311,3.0,7.0,92,0.00,,---,0.71,0.00,VWS V14.00,2013-02-13 04:27:00,
2013-02-12 22:33:00,45.9,43.7,29.93,NNW,330,5.0,11.0,92,0.00,,---,0.71,0.00,VWS V14.00,2013-02-13 04:33:00,
2013-02-12 22:40:00,45.8,43.6,29.93,NW,326,3.0,5.0,92,0.00,,---,0.71,0.00,VWS V14.00,2013-02-13 04:40:00,
2013-02-12 22:48:00,45.6,43.1,29.94,WNW,293,7.0,12.0,91,0.00,,---,0.71,0.00,VWS V14.00,2013-02-13 04:48:00,
2013-02-12 22:56:00,45.6,43.1,29.94,NW,311,3.0,12.0,91,0.00,,---,0.71,0.00,VWS V14.00,2013-02-13 04:56:00,
2013-02-12 23:00:00,45.5,43.3,29.94,NW,304,6.0,12.0,92,0.00,,---,0.71,0.00,VWS V14.00,2013-02-13 05:00:00,
2013-02-12 23:08:00,45.5,43.3,29.94,WNW,294,4.0,8.0,92,0.00,,---,0.71,0.00,VWS V14.00,2013-02-13 05:08:00,
2013-02-12 23:16:00,45.4,42.9,29.94,NW,311,2.0,10.0,91,0.00,,---,0.71,0.00,VWS V14.00,2013-02-13 05:16:00,
2013-02-12 23:20:00,45.2,42.7,29.94,North,355,2.0,10.0,91,0.00,,---,0.71,0.00,VWS V14.00,2013-02-13 05:20:00,
2013-02-12 23:28:00,45.2,43.0,29.94,NW,305,5.0,10.0,92,0.00,,---,0.71,0.00,VWS V14.00,2013-02-13 05:28:00,
2013-02-12 23:33:00,45.4,43.2,29.94,NW,313,3.0,11.0,92,0.00,,---,0.71,0.00,VWS V14.00,2013-02-13 05:33:00,
2013-02-12 23:36:00,45.5,43.3,29.94,NNW,341,2.0,3.0,92,0.00,,---,0.71,0.00,VWS V14.00,2013-02-13 05:36:00,
2013-02-12 23:44:00,45.6,43.4,29.94,WNW,303,9.0,9.0,92,0.00,,---,0.71,0.00,VWS V14.00,2013-02-13 05:44:00,
2013-02-12 23:52:00,45.5,43.0,29.95,WNW,288,6.0,9.0,91,0.00,,---,0.71,0.00,VWS V14.00,2013-02-13 05:52:00,